Time;durP1;ratioP1;P1;durP2;ratioP2;P2;SDS_P1;SDS_P2;PMS_P1;PMS_P2;Temp;Humidity;BMP_temperature;BMP_pressure;BME280_temperature;BME280_humidity;BME280_pressure;Samples;Min_cycle;Max_cycle;Signal;HPM_P1;HPM_P2
2023/03/07 00:01:29;;;;;;;22.60;15.30;;;3.10;93.30;;;;;;5034329;28;20043;-54
2023/03/07 00:03:56;;;;;;;29.02;19.90;;;3.10;93.20;;;;;;5033126;28;20120;-50
2023/03/07 00:06:23;;;;;;;26.05;16.42;;;3.00;93.20;;;;;;5049572;28;20049;-50
2023/03/07 00:08:52;;;;;;;26.85;17.70;;;3.10;93.20;;;;;;5033047;28;20049;-48
2023/03/07 00:11:21;;;;;;;23.13;16.00;;;3.00;93.20;;;;;;5044571;28;20037;-48
2023/03/07 00:13:48;;;;;;;23.88;15.82;;;3.00;93.10;;;;;;5033934;28;20367;-49
2023/03/07 00:16:17;;;;;;;22.83;15.05;;;3.10;93.20;;;;;;5033806;28;20033;-50
2023/03/07 00:18:44;;;;;;;23.50;15.60;;;3.00;93.10;;;;;;5033328;28;20037;-48
2023/03/07 00:21:14;;;;;;;23.27;15.27;;;3.00;93.10;;;;;;5047651;28;20033;-48
2023/03/07 00:23:42;;;;;;;22.50;15.63;;;3.00;93.10;;;;;;5051374;28;20040;-50
2023/03/07 00:26:21;;;;;;;22.63;15.10;;;3.00;93.20;;;;;;5032556;28;20041;-48
2023/03/07 00:28:53;;;;;;;25.63;16.95;;;3.00;93.10;;;;;;5032800;28;20030;-48
2023/03/07 00:31:27;;;;;;;23.60;16.17;;;3.00;93.20;;;;;;5035693;28;20071;-48
2023/03/07 00:33:55;;;;;;;22.35;15.00;;;3.00;93.10;;;;;;5054058;28;20021;-49
2023/03/07 00:36:25;;;;;;;21.73;15.30;;;3.00;93.20;;;;;;5038232;28;20108;-48
2023/03/07 00:39:13;;;;;;;24.52;15.60;;;3.00;93.10;;;;;;5033928;28;20045;-49
2023/03/07 00:42:03;;;;;;;25.23;15.55;;;3.00;93.20;;;;;;5046844;28;20095;-49
2023/03/07 00:44:31;;;;;;;20.77;13.80;;;3.00;93.30;;;;;;5049368;28;20030;-49
2023/03/07 00:46:59;;;;;;;22.97;16.13;;;3.00;93.20;;;;;;5033941;28;20105;-48
2023/03/07 00:49:26;;;;;;;19.60;13.65;;;3.00;93.20;;;;;;5032378;28;20299;-48
2023/03/07 00:51:52;;;;;;;19.48;13.63;;;3.00;93.20;;;;;;5049169;28;20025;-48
2023/03/07 00:54:19;;;;;;;21.55;14.32;;;3.00;93.20;;;;;;5050807;28;20025;-49
2023/03/07 00:56:48;;;;;;;23.48;15.25;;;3.00;93.20;;;;;;5044561;28;20522;-49
2023/03/07 00:59:15;;;;;;;21.05;13.68;;;3.00;93.20;;;;;;5052480;28;20328;-48
2023/03/07 01:01:41;;;;;;;20.05;14.07;;;3.00;93.20;;;;;;5033284;28;20166;-50
2023/03/07 01:04:07;;;;;;;23.50;14.85;;;3.00;93.20;;;;;;5032963;28;20033;-49
2023/03/07 01:06:38;;;;;;;25.83;16.23;;;2.90;93.20;;;;;;5040070;28;20174;-48
2023/03/07 01:09:06;;;;;;;23.85;16.77;;;3.00;93.30;;;;;;5050920;28;20119;-48
2023/03/07 01:11:35;;;;;;;19.88;14.85;;;3.00;93.40;;;;;;5039409;28;20025;-47
2023/03/07 01:14:12;;;;;;;23.45;14.80;;;3.10;93.40;;;;;;5052468;28;20064;-48
2023/03/07 01:16:38;;;;;;;26.05;14.63;;;3.10;93.50;;;;;;5053386;28;20033;-48
2023/03/07 01:19:11;;;;;;;20.73;14.32;;;3.10;93.50;;;;;;5047523;28;20087;-54
2023/03/07 01:21:42;;;;;;;25.27;16.33;;;3.10;93.50;;;;;;5049533;28;20033;-56
2023/03/07 01:24:12;;;;;;;21.58;13.50;;;3.20;93.50;;;;;;5035688;28;20032;-56
2023/03/07 01:26:41;;;;;;;23.65;13.52;;;3.10;93.40;;;;;;5047486;28;20033;-50
2023/03/07 01:29:10;;;;;;;22.90;13.60;;;3.10;93.40;;;;;;5051673;28;20044;-52
2023/03/07 01:31:37;;;;;;;18.42;12.73;;;3.10;93.40;;;;;;5051758;28;20062;-50
2023/03/07 01:34:07;;;;;;;21.48;13.02;;;3.10;93.50;;;;;;5038734;28;20029;-49
2023/03/07 01:36:35;;;;;;;22.17;13.88;;;3.00;93.30;;;;;;5053056;28;20036;-50
2023/03/07 01:39:13;;;;;;;23.83;14.52;;;3.00;93.40;;;;;;5052557;28;20112;-49
2023/03/07 01:41:40;;;;;;;21.13;13.90;;;3.00;93.40;;;;;;5035329;28;20044;-49
2023/03/07 01:44:24;;;;;;;19.92;13.00;;;3.00;93.50;;;;;;5052734;28;20466;-48
2023/03/07 01:46:52;;;;;;;24.60;13.43;;;3.00;93.50;;;;;;5047072;28;20116;-51
2023/03/07 01:49:38;;;;;;;24.23;14.50;;;3.00;93.50;;;;;;5047869;28;20071;-48
2023/03/07 01:52:26;;;;;;;20.23;11.85;;;3.10;93.60;;;;;;5051889;28;20033;-51
2023/03/07 01:54:58;;;;;;;19.13;12.02;;;3.00;93.50;;;;;;5050926;28;20029;-53
2023/03/07 01:57:34;;;;;;;21.05;11.55;;;3.00;93.40;;;;;;5048358;28;20044;-51
2023/03/07 02:00:08;;;;;;;20.35;12.25;;;3.00;93.40;;;;;;5052049;28;20029;-52
2023/03/07 02:02:44;;;;;;;15.63;10.02;;;2.90;93.30;;;;;;5041260;28;20160;-51
2023/03/07 02:05:14;;;;;;;21.75;11.20;;;2.90;93.30;;;;;;5031931;28;20034;-49
2023/03/07 02:07:50;;;;;;;15.93;10.27;;;2.80;93.20;;;;;;5032423;28;20080;-48
2023/03/07 02:10:21;;;;;;;17.83;10.27;;;2.80;93.20;;;;;;5045236;28;20112;-49
2023/03/07 02:12:52;;;;;;;17.98;10.32;;;2.70;93.20;;;;;;5025093;28;20482;-48
2023/03/07 02:15:18;;;;;;;18.27;11.15;;;2.70;93.20;;;;;;5032005;28;20466;-49
2023/03/07 02:17:46;;;;;;;23.60;11.75;;;2.70;93.20;;;;;;5048039;28;20065;-50
2023/03/07 02:20:34;;;;;;;15.18;10.23;;;2.60;93.10;;;;;;5050291;28;20458;-50
2023/03/07 02:23:01;;;;;;;19.13;9.15;;;2.60;93.20;;;;;;5051934;28;20112;-49
2023/03/07 02:26:24;;;;;;;18.67;8.98;;;2.50;93.20;;;;;;5052791;28;20630;-48
2023/03/07 02:28:54;;;;;;;14.20;7.45;;;2.50;93.20;;;;;;5050600;28;20407;-48
2023/03/07 02:31:26;;;;;;;12.18;6.82;;;2.50;93.20;;;;;;5051749;28;20036;-50
2023/03/07 02:33:54;;;;;;;17.63;6.40;;;2.50;93.20;;;;;;5052417;28;20439;-48
2023/03/07 02:36:34;;;;;;;13.50;7.67;;;2.50;93.10;;;;;;5049150;28;20038;-52
2023/03/07 02:39:09;;;;;;;13.95;5.35;;;2.50;93.00;;;;;;5044563;28;20044;-50
2023/03/07 02:41:39;;;;;;;14.30;6.05;;;2.50;93.00;;;;;;5035981;28;20045;-48
2023/03/07 02:44:05;;;;;;;12.68;4.80;;;2.40;92.80;;;;;;5035790;28;20355;-50
2023/03/07 02:46:32;;;;;;;15.85;5.60;;;2.40;92.80;;;;;;5033900;28;20386;-49
2023/03/07 02:48:59;;;;;;;15.65;4.53;;;2.50;92.80;;;;;;5032309;28;20034;-49
2023/03/07 02:51:26;;;;;;;10.20;5.05;;;2.50;92.70;;;;;;5015182;28;20135;-50
2023/03/07 02:53:56;;;;;;;18.85;5.10;;;2.50;92.70;;;;;;5036017;28;20083;-48
2023/03/07 02:56:23;;;;;;;13.27;5.43;;;2.50;92.70;;;;;;5042908;28;20473;-48
2023/03/07 02:58:52;;;;;;;22.75;5.80;;;2.40;92.60;;;;;;5038251;28;20473;-49
2023/03/07 03:01:19;;;;;;;14.05;4.10;;;2.40;92.60;;;;;;5054199;28;20454;-50
2023/03/07 03:03:49;;;;;;;14.02;4.55;;;2.40;92.60;;;;;;5037908;28;20111;-47
2023/03/07 03:06:14;;;;;;;;;;;2.40;92.50;;;;;;5055660;28;20052;-49
2023/03/07 03:08:41;;;;;;;10.98;3.08;;;2.40;92.40;;;;;;5053576;28;19977;-47
2023/03/07 03:11:12;;;;;;;15.63;5.05;;;2.40;92.20;;;;;;5055524;28;20032;-48
2023/03/07 03:13:39;;;;;;;10.30;3.15;;;2.40;92.10;;;;;;5053894;28;20037;-47
2023/03/07 03:16:04;;;;;;;10.15;2.60;;;2.40;91.90;;;;;;5055555;28;20347;-49
2023/03/07 03:18:32;;;;;;;13.57;3.33;;;2.40;91.60;;;;;;5042126;28;20037;-47
2023/03/07 03:21:08;;;;;;;7.00;2.00;;;2.40;91.50;;;;;;5035521;28;20383;-47
2023/03/07 03:23:35;;;;;;;13.45;2.75;;;2.30;91.30;;;;;;5031848;28;20033;-48
2023/03/07 03:26:10;;;;;;;9.98;2.33;;;2.40;91.20;;;;;;5053183;28;20120;-50
2023/03/07 03:28:37;;;;;;;8.30;2.10;;;2.40;91.00;;;;;;5052527;28;20378;-50
2023/03/07 03:31:20;;;;;;;10.30;2.53;;;2.40;90.80;;;;;;5054254;28;20065;-47
2023/03/07 03:33:51;;;;;;;14.50;2.50;;;2.40;90.70;;;;;;5055316;28;20025;-48
2023/03/07 03:36:24;;;;;;;15.15;2.08;;;2.40;90.50;;;;;;5048577;28;20358;-48
2023/03/07 03:38:55;;;;;;;11.52;4.00;;;2.40;90.40;;;;;;5051532;28;20126;-47
2023/03/07 03:41:34;;;;;;;7.28;3.03;;;2.40;90.20;;;;;;5054926;28;20025;-49
2023/03/07 03:44:03;;;;;;;16.27;2.35;;;2.40;90.10;;;;;;5038862;28;20459;-50
2023/03/07 03:46:30;;;;;;;9.88;2.20;;;2.40;89.90;;;;;;5035005;28;20446;-47
2023/03/07 03:48:56;;;;;;;9.32;3.90;;;2.40;89.80;;;;;;5042915;28;20044;-47
2023/03/07 03:51:24;;;;;;;7.97;2.28;;;2.50;89.60;;;;;;5053320;28;20025;-46
2023/03/07 03:53:51;;;;;;;8.55;1.70;;;2.40;89.50;;;;;;5053993;28;20110;-49
2023/03/07 03:56:22;;;;;;;7.63;1.83;;;2.40;89.40;;;;;;5050657;28;20095;-49
2023/03/07 03:59:00;;;;;;;11.00;2.28;;;2.40;89.40;;;;;;5049286;28;20039;-47
2023/03/07 04:01:28;;;;;;;9.85;2.00;;;2.40;89.30;;;;;;5054601;28;20110;-48
2023/03/07 04:03:54;;;;;;;11.70;1.50;;;2.40;89.10;;;;;;5036426;28;20120;-48
2023/03/07 04:06:28;;;;;;;9.45;2.17;;;2.40;88.80;;;;;;5050507;28;20096;-48
2023/03/07 04:09:12;;;;;;;12.50;1.67;;;2.40;88.60;;;;;;5046471;28;20041;-48
2023/03/07 04:11:40;;;;;;;9.50;1.52;;;2.40;88.60;;;;;;5019623;28;20052;-46
2023/03/07 04:14:06;;;;;;;13.13;1.95;;;2.40;88.60;;;;;;5048299;28;20061;-46
2023/03/07 04:16:34;;;;;;;6.10;1.33;;;2.30;88.60;;;;;;5054459;28;20362;-46
2023/03/07 04:19:01;;;;;;;10.75;1.50;;;2.40;88.70;;;;;;5054450;28;20427;-46
2023/03/07 04:21:27;;;;;;;12.93;1.52;;;2.40;88.60;;;;;;5039350;28;20406;-47
2023/03/07 04:23:56;;;;;;;10.13;1.58;;;2.30;88.50;;;;;;5043962;28;20040;-47
2023/03/07 04:26:23;;;;;;;;;;;2.30;88.50;;;;;;5054806;28;20035;-46
2023/03/07 04:28:53;;;;;;;10.52;3.58;;;2.30;88.70;;;;;;5049718;28;19908;-47
2023/03/07 04:31:26;;;;;;;5.22;1.85;;;2.30;88.70;;;;;;5048521;28;20029;-45
2023/03/07 04:34:03;;;;;;;10.90;2.42;;;2.30;88.70;;;;;;5033950;28;20142;-45
2023/03/07 04:36:30;;;;;;;8.52;1.15;;;2.20;88.60;;;;;;5033695;28;20031;-46
2023/03/07 04:38:59;;;;;;;11.40;2.28;;;2.30;88.60;;;;;;5052450;28;20033;-45
2023/03/07 04:41:28;;;;;;;8.07;1.42;;;2.30;88.60;;;;;;5046329;28;20032;-47
2023/03/07 04:43:57;;;;;;;6.20;1.85;;;2.30;88.60;;;;;;5042507;28;20041;-46
2023/03/07 04:46:24;;;;;;;12.77;2.65;;;2.30;88.60;;;;;;5052213;28;20033;-46
2023/03/07 04:48:51;;;;;;;5.60;1.85;;;2.40;88.50;;;;;;5039076;28;20103;-48
2023/03/07 04:51:21;;;;;;;9.02;1.77;;;2.50;88.50;;;;;;5038697;28;20032;-48
2023/03/07 04:53:48;;;;;;;11.02;3.13;;;2.50;88.50;;;;;;5053675;28;20025;-48
2023/03/07 04:56:18;;;;;;;6.47;1.35;;;2.40;88.60;;;;;;5039860;28;20069;-48
2023/03/07 04:58:44;;;;;;;6.80;1.52;;;2.40;88.80;;;;;;5036869;28;20041;-50
2023/03/07 05:01:13;;;;;;;13.00;1.77;;;2.30;89.00;;;;;;5032400;28;20037;-50
2023/03/07 05:03:40;;;;;;;;;;;2.30;89.10;;;;;;5034000;28;20072;-47
2023/03/07 05:06:11;;;;;;;11.07;1.65;;;2.20;89.40;;;;;;5043281;28;19913;-48
2023/03/07 05:08:43;;;;;;;9.05;2.35;;;2.20;89.50;;;;;;5052583;28;20032;-49
2023/03/07 05:11:10;;;;;;;9.55;2.10;;;2.20;89.70;;;;;;5048753;28;20090;-47
2023/03/07 05:13:37;;;;;;;13.80;1.88;;;2.10;89.70;;;;;;5051538;28;20032;-48
2023/03/07 05:16:04;;;;;;;15.00;2.38;;;2.10;89.80;;;;;;5053436;28;20086;-47
2023/03/07 05:18:29;;;;;;;8.73;2.40;;;2.00;89.90;;;;;;5053239;28;20427;-47
2023/03/07 05:20:58;;;;;;;8.93;1.38;;;2.10;90.20;;;;;;5038926;28;20032;-47
2023/03/07 05:23:26;;;;;;;5.80;1.60;;;2.20;90.30;;;;;;5033405;28;20041;-48
2023/03/07 05:25:55;;;;;;;5.50;1.15;;;2.30;90.20;;;;;;5039040;28;20029;-47
2023/03/07 05:28:22;;;;;;;4.88;0.80;;;2.40;89.90;;;;;;5052280;28;20037;-48
2023/03/07 05:30:50;;;;;;;2.60;0.70;;;2.40;89.30;;;;;;5051153;28;20442;-47
2023/03/07 05:33:18;;;;;;;6.78;0.90;;;2.50;89.20;;;;;;5053445;28;20396;-48
2023/03/07 05:35:46;;;;;;;4.07;1.10;;;2.50;89.10;;;;;;5052097;28;20036;-48
2023/03/07 05:38:14;;;;;;;3.78;1.10;;;2.50;89.50;;;;;;5047569;28;20023;-49
2023/03/07 05:40:44;;;;;;;5.50;1.10;;;2.50;90.00;;;;;;5031889;28;20117;-49
2023/03/07 05:43:13;;;;;;;8.82;1.13;;;2.40;90.30;;;;;;5033110;28;20040;-48
2023/03/07 05:45:40;;;;;;;6.78;1.10;;;2.40;90.40;;;;;;5047158;28;20423;-51
2023/03/07 05:48:07;;;;;;;5.10;1.13;;;2.40;90.50;;;;;;5048409;28;20056;-49
2023/03/07 05:50:32;;;;;;;6.95;1.40;;;2.50;90.80;;;;;;5033037;28;20354;-49
2023/03/07 05:52:58;;;;;;;4.43;1.20;;;2.50;90.90;;;;;;5048448;28;20120;-51
2023/03/07 05:55:28;;;;;;;5.72;0.95;;;2.50;91.00;;;;;;5015229;28;20557;-51
2023/03/07 05:57:55;;;;;;;4.53;1.10;;;2.50;91.00;;;;;;5049513;28;20060;-51
2023/03/07 06:00:23;;;;;;;6.43;1.92;;;2.40;91.00;;;;;;5030478;28;20029;-47
2023/03/07 06:02:50;;;;;;;7.15;1.20;;;2.40;91.10;;;;;;5042216;28;20800;-47
2023/03/07 06:05:16;;;;;;;10.15;1.63;;;2.30;91.00;;;;;;5052354;28;20649;-47
2023/03/07 06:07:42;;;;;;;9.63;1.30;;;2.30;91.00;;;;;;5052347;28;20132;-47
2023/03/07 06:10:11;;;;;;;10.90;1.90;;;2.30;91.00;;;;;;5038827;28;20407;-47
2023/03/07 06:12:40;;;;;;;9.38;1.70;;;2.30;91.10;;;;;;5031547;28;20030;-48
2023/03/07 06:15:09;;;;;;;8.40;2.25;;;2.40;91.10;;;;;;5036356;28;20056;-48
2023/03/07 06:17:37;;;;;;;11.95;2.05;;;2.30;91.00;;;;;;5032740;28;20087;-47
2023/03/07 06:20:03;;;;;;;7.50;1.52;;;2.30;91.00;;;;;;5032487;28;20108;-47
2023/03/07 06:22:36;;;;;;;10.70;2.08;;;2.30;91.00;;;;;;5031777;28;20511;-47
2023/03/07 06:25:11;;;;;;;13.48;2.28;;;2.20;90.90;;;;;;5050093;28;20040;-48
2023/03/07 06:27:39;;;;;;;12.15;2.13;;;2.20;90.80;;;;;;5044132;28;20029;-47
2023/03/07 06:30:08;;;;;;;7.95;1.83;;;2.20;90.90;;;;;;5052719;28;20022;-47
2023/03/07 06:32:44;;;;;;;12.95;1.95;;;2.20;90.80;;;;;;5035814;28;20037;-47
2023/03/07 06:35:12;;;;;;;17.60;2.50;;;2.20;90.60;;;;;;5036476;28;20033;-49
2023/03/07 06:37:42;;;;;;;14.38;2.70;;;2.20;90.50;;;;;;5035821;28;20518;-49
2023/03/07 06:40:10;;;;;;;19.02;2.42;;;2.20;90.30;;;;;;5044253;28;20033;-47
2023/03/07 06:42:36;;;;;;;12.05;3.10;;;2.20;90.20;;;;;;5037505;28;20029;-48
2023/03/07 06:45:02;;;;;;;18.85;2.78;;;2.30;90.00;;;;;;5046080;28;20033;-48
2023/03/07 06:47:33;;;;;;;13.65;2.90;;;2.30;89.90;;;;;;5052466;28;20028;-46
2023/03/07 06:50:01;;;;;;;12.43;3.35;;;2.40;89.80;;;;;;5054769;28;20124;-48
2023/03/07 06:52:30;;;;;;;14.95;2.10;;;2.50;89.50;;;;;;5055546;28;20048;-46
2023/03/07 06:54:59;;;;;;;15.35;1.92;;;2.50;89.40;;;;;;5055581;28;20033;-46
2023/03/07 06:57:26;;;;;;;8.90;1.90;;;2.60;89.20;;;;;;5038677;28;20096;-45
2023/03/07 06:59:51;;;;;;;18.63;3.42;;;2.60;89.10;;;;;;5048834;28;20029;-46
2023/03/07 07:02:20;;;;;;;13.68;4.80;;;2.70;89.00;;;;;;5034682;28;20917;-46
2023/03/07 07:04:49;;;;;;;11.55;2.72;;;2.80;88.90;;;;;;5047599;28;20725;-47
2023/03/07 07:07:17;;;;;;;10.43;2.25;;;2.80;88.50;;;;;;5040660;28;20037;-46
2023/03/07 07:09:43;;;;;;;11.15;2.25;;;2.80;88.40;;;;;;5035586;28;20021;-45
2023/03/07 07:12:11;;;;;;;11.15;2.58;;;2.80;88.40;;;;;;5034321;28;20451;-45
2023/03/07 07:14:39;;;;;;;10.38;3.08;;;2.80;88.20;;;;;;5049575;28;20060;-45
2023/03/07 07:17:09;;;;;;;10.77;2.10;;;2.90;88.10;;;;;;5054212;28;20035;-45
2023/03/07 07:19:37;;;;;;;10.00;2.88;;;2.90;87.80;;;;;;5055429;28;20104;-45
2023/03/07 07:22:10;;;;;;;16.42;3.17;;;2.90;87.60;;;;;;5038675;28;20034;-45
2023/03/07 07:24:38;;;;;;;10.32;2.28;;;3.00;87.60;;;;;;5034730;28;20111;-45
2023/03/07 07:27:06;;;;;;;13.85;2.17;;;3.00;86.90;;;;;;5053899;28;20029;-46
2023/03/07 07:29:34;;;;;;;15.55;2.95;;;3.10;86.80;;;;;;5051965;28;20039;-44
2023/03/07 07:32:04;;;;;;;20.17;3.58;;;3.10;86.50;;;;;;5053610;28;20025;-45
2023/03/07 07:34:31;;;;;;;10.98;1.55;;;3.20;86.10;;;;;;5049216;28;20030;-44
2023/03/07 07:36:59;;;;;;;10.95;2.28;;;3.20;85.30;;;;;;5035219;28;20116;-45
2023/03/07 07:39:27;;;;;;;16.45;2.03;;;3.20;85.20;;;;;;5037515;28;20033;-44
2023/03/07 07:41:54;;;;;;;14.35;2.05;;;3.20;85.50;;;;;;5055076;28;20037;-45
2023/03/07 07:44:20;;;;;;;16.65;2.78;;;3.30;85.60;;;;;;5050561;28;20077;-45
2023/03/07 07:46:47;;;;;;;12.23;2.42;;;3.30;85.90;;;;;;5035214;28;20037;-44
2023/03/07 07:49:14;;;;;;;11.52;2.80;;;3.40;85.80;;;;;;5034944;28;20013;-44
2023/03/07 07:51:41;;;;;;;13.80;2.85;;;3.40;85.60;;;;;;5047109;28;20033;-44
2023/03/07 07:54:08;;;;;;;13.82;2.30;;;3.40;85.20;;;;;;5049331;28;20494;-46
2023/03/07 07:56:35;;;;;;;16.75;2.30;;;3.30;84.50;;;;;;5049733;28;20037;-44
2023/03/07 07:59:03;;;;;;;10.48;1.90;;;3.40;83.30;;;;;;5053168;28;20040;-44
2023/03/07 08:01:30;;;;;;;9.00;1.25;;;3.40;82.90;;;;;;5046817;28;20040;-44
2023/03/07 08:03:56;;;;;;;10.50;2.53;;;3.40;82.40;;;;;;5053412;28;20092;-48
2023/03/07 08:06:27;;;;;;;6.72;2.15;;;3.60;81.80;;;;;;5052531;28;20495;-44
2023/03/07 08:08:55;;;;;;;9.98;2.30;;;3.70;81.10;;;;;;5033926;28;20044;-45
2023/03/07 08:11:22;;;;;;;6.63;1.97;;;3.80;80.70;;;;;;5039802;28;20021;-45
2023/03/07 08:13:49;;;;;;;9.07;2.13;;;3.80;81.00;;;;;;5052300;28;20025;-48
2023/03/07 08:16:19;;;;;;;6.88;1.58;;;3.80;80.80;;;;;;5052734;28;20085;-47
2023/03/07 08:18:51;;;;;;;10.45;1.85;;;3.80;80.20;;;;;;5053609;28;20320;-44
2023/03/07 08:21:20;;;;;;;8.18;1.80;;;3.90;80.10;;;;;;5053331;28;20041;-45
2023/03/07 08:23:50;;;;;;;12.38;1.55;;;3.90;79.80;;;;;;5050343;28;20033;-45
2023/03/07 08:26:18;;;;;;;8.18;1.63;;;4.00;80.00;;;;;;5054185;28;20343;-45
2023/03/07 08:28:44;;;;;;;6.07;1.88;;;4.00;80.10;;;;;;5052909;28;20123;-45
2023/03/07 08:31:13;;;;;;;12.38;2.25;;;3.90;80.60;;;;;;5047087;28;20033;-48
2023/03/07 08:33:40;;;;;;;8.95;1.35;;;3.60;82.50;;;;;;5050321;28;20465;-44
2023/03/07 08:36:11;;;;;;;9.55;1.50;;;3.40;83.70;;;;;;5033849;28;20520;-45
2023/03/07 08:38:38;;;;;;;14.20;2.80;;;3.20;84.50;;;;;;5047905;28;20108;-45
2023/03/07 08:41:07;;;;;;;14.00;1.70;;;3.00;85.10;;;;;;5051787;28;20025;-47
2023/03/07 08:43:38;;;;;;;11.02;2.80;;;3.00;85.50;;;;;;5033473;28;20053;-44
2023/03/07 08:46:04;;;;;;;9.45;1.52;;;3.10;86.00;;;;;;5047476;28;20362;-46
2023/03/07 08:48:35;;;;;;;14.50;2.40;;;3.10;86.30;;;;;;5047731;28;20026;-45
2023/03/07 08:51:11;;;;;;;8.02;2.20;;;3.40;86.30;;;;;;5033396;28;20414;-45
2023/03/07 08:53:38;;;;;;;8.23;2.25;;;3.70;83.30;;;;;;5039509;28;20020;-45
2023/03/07 08:56:11;;;;;;;8.98;3.00;;;3.90;83.20;;;;;;5053052;28;20021;-45
2023/03/07 08:58:38;;;;;;;10.65;2.53;;;4.00;82.10;;;;;;5050096;28;20431;-48
2023/03/07 09:01:07;;;;;;;9.00;2.05;;;4.00;81.30;;;;;;5050015;28;20044;-44
2023/03/07 09:03:35;;;;;;;9.73;2.60;;;3.90;80.70;;;;;;5053660;28;20339;-45
2023/03/07 09:06:04;;;;;;;5.78;1.63;;;4.00;81.50;;;;;;5047656;28;20033;-45
2023/03/07 09:08:32;;;;;;;11.85;1.95;;;4.10;80.60;;;;;;5032622;28;20461;-46
2023/03/07 09:11:04;;;;;;;6.85;1.38;;;4.20;79.70;;;;;;5033743;28;20068;-45
2023/03/07 09:13:31;;;;;;;8.20;1.63;;;4.20;78.90;;;;;;5039736;28;20426;-45
2023/03/07 09:15:57;;;;;;;7.85;1.48;;;4.40;78.50;;;;;;5033419;28;20038;-45
2023/03/07 09:18:27;;;;;;;5.72;1.83;;;4.70;77.70;;;;;;5033364;28;20027;-44
2023/03/07 09:20:54;;;;;;;11.55;1.65;;;5.00;76.80;;;;;;5033008;28;20022;-44
2023/03/07 09:23:21;;;;;;;14.02;1.75;;;4.90;75.60;;;;;;5048819;28;20040;-45
2023/03/07 09:25:49;;;;;;;8.30;2.72;;;4.90;77.10;;;;;;5048603;28;20032;-45
2023/03/07 09:28:20;;;;;;;12.48;3.63;;;5.20;76.10;;;;;;5048079;28;20386;-44
2023/03/07 09:30:45;;;;;;;8.25;1.85;;;5.50;75.10;;;;;;5052899;28;20025;-45
2023/03/07 09:33:12;;;;;;;9.95;2.50;;;5.90;74.50;;;;;;5035194;28;20029;-46
2023/03/07 09:35:39;;;;;;;14.95;3.22;;;6.20;73.50;;;;;;5033014;28;20096;-46
2023/03/07 09:38:09;;;;;;;6.75;1.98;;;5.90;72.40;;;;;;5033269;28;20025;-45
2023/03/07 09:40:37;;;;;;;17.58;2.10;;;5.40;70.70;;;;;;5033456;28;20021;-45
2023/03/07 09:43:25;;;;;;;8.40;1.53;;;5.10;68.60;;;;;;5051389;28;20164;-47
2023/03/07 09:46:28;;;;;;;8.45;1.73;;;4.80;67.50;;;;;;5015376;28;20025;-45
2023/03/07 09:49:17;;;;;;;10.27;2.00;;;4.60;68.40;;;;;;5050140;28;20033;-45
2023/03/07 09:51:52;;;;;;;8.25;1.92;;;4.50;68.00;;;;;;5046588;28;20536;-45
2023/03/07 09:54:31;;;;;;;10.75;2.00;;;4.40;67.80;;;;;;5045012;28;20057;-45
2023/03/07 09:57:14;;;;;;;7.30;2.00;;;4.50;67.50;;;;;;5040230;28;20088;-45
2023/03/07 10:00:06;;;;;;;8.73;1.88;;;4.90;67.70;;;;;;5052953;28;20043;-47
2023/03/07 10:03:01;;;;;;;9.13;1.77;;;5.30;64.60;;;;;;5053119;28;20033;-47
2023/03/07 10:05:55;;;;;;;10.95;1.90;;;5.20;65.50;;;;;;5046322;28;20028;-46
2023/03/07 10:08:43;;;;;;;8.63;1.92;;;5.30;63.70;;;;;;5055833;28;20075;-45
2023/03/07 10:11:29;;;;;;;9.60;3.00;;;5.50;60.90;;;;;;5054350;28;20029;-45
2023/03/07 10:14:26;;;;;;;7.93;2.40;;;5.70;60.60;;;;;;5036742;28;20029;-46
2023/03/07 10:17:36;;;;;;;7.25;1.15;;;5.90;60.80;;;;;;5038129;28;20336;-45
2023/03/07 10:20:44;;;;;;;7.65;1.35;;;6.20;58.70;;;;;;5049503;28;20475;-46
2023/03/07 10:23:31;;;;;;;5.50;1.08;;;6.00;55.10;;;;;;5036283;28;20083;-45
2023/03/07 10:26:35;;;;;;;9.00;1.33;;;5.90;55.70;;;;;;5042046;28;20142;-45
2023/03/07 10:29:14;;;;;;;5.88;1.20;;;5.90;57.60;;;;;;5055702;28;20100;-46
2023/03/07 10:31:46;;;;;;;6.18;1.73;;;6.20;59.10;;;;;;5030225;28;20048;-45
2023/03/07 10:34:39;;;;;;;7.18;2.03;;;6.20;57.30;;;;;;5056650;28;20060;-45
2023/03/07 10:37:20;;;;;;;7.38;1.98;;;6.10;57.70;;;;;;5053984;28;20024;-46
2023/03/07 10:40:06;;;;;;;5.15;1.70;;;6.40;58.60;;;;;;5053639;28;20404;-46
2023/03/07 10:42:38;;;;;;;11.10;1.38;;;6.70;57.80;;;;;;5035937;28;20403;-45
2023/03/07 10:45:11;;;;;;;10.02;1.38;;;7.00;59.50;;;;;;5036420;28;20111;-45
2023/03/07 10:47:38;;;;;;;4.35;0.75;;;6.90;55.30;;;;;;5018788;28;20398;-47
2023/03/07 10:50:34;;;;;;;6.03;0.98;;;6.30;54.60;;;;;;5036077;28;20117;-48
2023/03/07 10:53:31;;;;;;;5.40;1.88;;;5.70;55.60;;;;;;5056017;28;20033;-45
2023/03/07 10:56:13;;;;;;;6.50;1.30;;;5.60;57.60;;;;;;5044508;28;20048;-45
2023/03/07 10:59:01;;;;;;;12.23;3.80;;;6.10;54.90;;;;;;5035930;28;20351;-45
2023/03/07 11:01:29;;;;;;;9.00;2.00;;;6.30;56.20;;;;;;5038289;28;20112;-45
2023/03/07 11:04:20;;;;;;;7.82;1.40;;;6.00;56.10;;;;;;5054369;28;20044;-46
2023/03/07 11:07:20;;;;;;;7.57;1.38;;;5.90;58.30;;;;;;5040438;28;20140;-47
2023/03/07 11:09:47;;;;;;;6.65;1.30;;;6.20;58.70;;;;;;5037261;28;20041;-46
2023/03/07 11:12:22;;;;;;;5.38;1.27;;;6.20;57.60;;;;;;5055456;28;20102;-45
2023/03/07 11:14:58;;;;;;;6.05;1.17;;;6.10;54.30;;;;;;5035372;28;20044;-48
2023/03/07 11:17:45;;;;;;;6.70;1.05;;;6.00;52.40;;;;;;5051263;28;20021;-48
2023/03/07 11:20:45;;;;;;;8.63;1.30;;;6.10;54.00;;;;;;5055710;28;20029;-47
2023/03/07 11:23:25;;;;;;;4.95;1.27;;;6.40;54.70;;;;;;5042830;28;20123;-51
2023/03/07 11:25:55;;;;;;;6.57;1.48;;;6.40;54.30;;;;;;5043866;28;20025;-45
2023/03/07 11:28:41;;;;;;;5.22;1.10;;;6.40;54.80;;;;;;5053041;28;20037;-47
2023/03/07 11:31:49;;;;;;;6.25;1.23;;;6.90;56.60;;;;;;5055053;28;20025;-45
2023/03/07 11:34:29;;;;;;;5.25;1.10;;;6.50;54.30;;;;;;5038729;28;20041;-47
2023/03/07 11:37:21;;;;;;;6.93;2.15;;;6.50;55.20;;;;;;5037132;28;20052;-46
2023/03/07 11:40:18;;;;;;;10.68;1.65;;;6.40;54.20;;;;;;5034855;28;20049;-45
2023/03/07 11:43:13;;;;;;;4.63;1.42;;;6.10;53.90;;;;;;5035122;28;20408;-46
2023/03/07 11:45:55;;;;;;;7.55;1.30;;;5.80;56.10;;;;;;5045014;28;20041;-45
2023/03/07 11:48:48;;;;;;;4.40;1.40;;;6.00;58.10;;;;;;5041990;28;20067;-46
2023/03/07 11:51:25;;;;;;;8.82;1.40;;;5.80;56.60;;;;;;5053777;28;20435;-46
2023/03/07 11:54:22;;;;;;;6.90;1.52;;;5.30;55.30;;;;;;5032438;28;20473;-45
2023/03/07 11:56:53;;;;;;;6.45;1.27;;;5.00;56.10;;;;;;5013782;28;20046;-46
2023/03/07 11:59:41;;;;;;;8.65;1.33;;;5.00;57.00;;;;;;5033653;28;20029;-46
2023/03/07 12:02:51;;;;;;;6.47;2.00;;;5.20;56.90;;;;;;5037965;28;20033;-45
2023/03/07 12:05:43;;;;;;;3.72;1.00;;;5.50;58.80;;;;;;5031717;28;20044;-46
2023/03/07 12:08:51;;;;;;;7.93;1.23;;;5.40;56.50;;;;;;5054512;28;20048;-46
2023/03/07 12:11:49;;;;;;;8.65;1.23;;;5.60;58.20;;;;;;5015333;28;20091;-45
2023/03/07 12:15:06;;;;;;;7.55;1.58;;;5.40;58.30;;;;;;5034356;28;20351;-45
2023/03/07 12:17:57;;;;;;;5.97;1.80;;;5.50;58.70;;;;;;5012383;28;20422;-46
2023/03/07 12:20:37;;;;;;;8.90;2.67;;;5.90;59.30;;;;;;5040986;28;20119;-45
2023/03/07 12:23:41;;;;;;;3.83;1.02;;;6.20;57.60;;;;;;5051695;28;20108;-47
2023/03/07 12:26:27;;;;;;;8.25;3.20;;;6.40;55.30;;;;;;4984531;28;20043;-45
2023/03/07 12:29:11;;;;;;;5.30;0.93;;;6.30;53.90;;;;;;4957336;28;20801;-45
2023/03/07 12:31:46;;;;;;;2.15;0.88;;;5.70;54.20;;;;;;4958347;28;20043;-45
2023/03/07 12:34:55;;;;;;;2.78;0.70;;;5.40;56.00;;;;;;4957777;28;20043;-46
2023/03/07 12:37:29;;;;;;;3.63;0.60;;;5.20;56.80;;;;;;4947377;28;20043;-47
2023/03/07 12:40:19;;;;;;;2.42;1.08;;;5.00;56.70;;;;;;4957375;28;20038;-45
2023/03/07 12:43:11;;;;;;;5.82;1.10;;;5.10;57.10;;;;;;4976661;28;20088;-48
2023/03/07 12:45:50;;;;;;;10.85;2.03;;;5.40;57.10;;;;;;4960812;28;20499;-46
2023/03/07 12:48:52;;;;;;;5.18;1.50;;;5.70;58.20;;;;;;4957619;28;20057;-46
2023/03/07 12:51:24;;;;;;;7.43;1.85;;;6.10;59.40;;;;;;4973255;28;20062;-46
2023/03/07 12:54:06;;;;;;;9.77;1.50;;;6.20;59.10;;;;;;4961714;28;20050;-46
2023/03/07 12:56:57;;;;;;;9.13;1.75;;;6.00;62.50;;;;;;4986101;28;20049;-46
2023/03/07 12:59:42;;;;;;;8.57;1.30;;;5.80;62.10;;;;;;4986543;28;20102;-46
2023/03/07 13:02:26;;;;;;;9.43;1.75;;;5.40;61.70;;;;;;5046253;28;20048;-47
2023/03/07 13:04:56;;;;;;;7.95;1.45;;;5.10;62.20;;;;;;5051780;28;20037;-47
2023/03/07 13:07:34;;;;;;;4.15;1.00;;;5.10;64.80;;;;;;5050538;28;20094;-46
2023/03/07 13:10:05;;;;;;;6.72;1.40;;;5.30;64.50;;;;;;5049587;28;20082;-47
2023/03/07 13:12:36;;;;;;;6.30;1.20;;;5.40;63.80;;;;;;5051372;28;20082;-46
2023/03/07 13:15:16;;;;;;;6.25;1.00;;;5.40;63.80;;;;;;5053492;28;20025;-48
2023/03/07 13:17:45;;;;;;;7.90;2.08;;;5.40;63.70;;;;;;5052662;28;20040;-47
2023/03/07 13:20:14;;;;;;;8.27;2.03;;;5.30;69.20;;;;;;5052243;28;20426;-45
2023/03/07 13:22:40;;;;;;;9.02;1.85;;;5.20;71.80;;;;;;5033987;28;20391;-46
2023/03/07 13:25:50;;;;;;;5.38;1.40;;;5.10;72.40;;;;;;5044314;28;20033;-46